Bloomsburg, Pennsylvania
Current Conditions -  °F | °C
As of 7:15 PM on Wednesday 22 Oct 2014 (Local Time) from KHZL Reporting Station
Moderate Rain Moderate Rain  
Wind Chill: 41°   Ceiling: 500
Heat Index: 46°   Visibility: 5mi
Dew Point: 45°   Wind: 13mph
Humidity: 93%   Direction: 340°NNW
Pressure: 29.98"   Gusts: 22mph
Location:  41°N, 76.45°W
Report Text: KHZL 222315Z AUTO 34011G19KT 5SM RA OVC005 08/07 A2998 RMK AO2
Loading
Personal Weather Stations






























Interactive Weather Map
Tropical Storm Tracking
New forecast layout! Learn more

10-Day Weather Forecast

Advertisements
Track Severe Weather on mobile